Aviation Digital Data Service (ADDS)

Output produced by METARs form (0143 UTC 01 November 2020)
found at http://www.aviationweather.gov/metar/data/
 
NSFA 010100Z 02013KT 360V070 9999 SCT022 33/25 Q1013
NSFA 010000Z 08010KT 9999 SCT022 33/26 Q1013
NSFA 312300Z 02013KT 020V090 9999 SCT022 33/27 Q1014
NSFA 312200Z VRB03KT 9999 FEW020 BKN290 32/26 Q1015
NSFA 312100Z 07008KT 020V120 9999 FEW022 BKN290 31/26 Q1015
NSFA 312000Z VRB03KT 9999 SCT022 BKN290 29/26 Q1015
NSFA 311900Z 13004KT 9999 DZ FEW020 SCT045 BKN120 25/25 Q1016
NSFA 311800Z 00000KT 9999 FEW022 SCT045 BKN120 24/24 Q1016
NSFA 311700Z 00000KT 9999 FEW024 BKN290 23/23 Q1014
NSFA 311600Z 16003KT 9999 FEW023 BKN290 23/23 Q1014
NSFA 311500Z 00000KT 9999 FEW022 BKN120 23/23 Q1013
NSFA 311300Z 00000KT 9999 FEW022 BKN150 23/22 Q1013
NSFA 311200Z 12004KT 9999 FEW023 BKN150 23/22 Q1015
NSFA 311100Z 11004KT 9999 FEW023 BKN150 23/23 Q1015
NSFA 311000Z 00000KT 9999 FEW023 BKN150 23/23 Q1016
NSFA 310900Z 12004KT 9999 FEW022 BKN270 24/24 Q1015
NSFA 310800Z 18006KT 9999 FEW020 BKN260 24/24 Q1015
NSFA 310700Z 15004KT 9999 FEW022 SCT050 BKN160 25/24 Q1015
NSFA 310600Z 17004KT 9999 FEW020 SCT048 BKN160 26/25 Q1014
NSFA 310500Z 13002KT 9999 FEW020 SCT046 BKN150 27/25 Q1013
NSFA 310400Z 00000KT 9999 FEW020 SCT042 BKN140 28/26 Q1012
NSFA 310300Z 35003KT 9999 FEW020 SCT042 OVC130 28/25 Q1012
NSFA 310200Z 01006KT 9999 FEW020 SCT042 OVC130 29/26 Q1012
TAF NSFA 312320Z 0100/0124 06010KT 9999 SCT020 SCT100 
     PROB30 
     TEMPO 0103/0108 5000 TSRA FEW018CB 
     PROB30 
     TEMPO 0114/0121 5000 TSRA FEW018CB